WetterOnline ( https://www.wetteronline.de )

Wetter aktuell Ultimo

Aktuelles Wetter: Reschenpass (1461m)

6-stündlich | Neueste Meldungen
Ortszeit Temperatur Wetter
Mo, 27.09. 14:00 18.0° C leicht bewölkt
Mo, 27.09. 8:00 9.8° C leicht bewölkt
Mo, 27.09. 2:00 12.0° C bewölkt
So, 26.09. 20:00 13.0° C bewölkt
So, 26.09. 14:00 13.0° C bewölkt
So, 26.09. 8:00 10.8° C wolkig
So, 26.09. 2:00 11.8° C leicht bewölkt
Sa, 25.09. 20:00 13.0° C leicht bewölkt
Ortszeit Temperatur Wetter
Mo, 27.09. 14:00 18.0° C leicht bewölkt
Mo, 27.09. 13:55 18° C leicht bewölkt
Mo, 27.09. 13:00 17.2° C leicht bewölkt
Mo, 27.09. 12:55 17° C leicht bewölkt
Mo, 27.09. 12:00 13.2° C leicht bewölkt
Mo, 27.09. 11:55 13° C -
Mo, 27.09. 11:00 10.8° C leicht bewölkt
Mo, 27.09. 10:55 11° C leicht bewölkt
Mo, 27.09. 10:00 9.8° C leicht bewölkt
Ortszeit Relative Feuchte Sichtweite
Mo, 27.09. 14:00 48% 15 km
Mo, 27.09. 8:00 96% 10 km
Mo, 27.09. 2:00 100% 10 km
So, 26.09. 20:00 99% 10 km
So, 26.09. 14:00 85% 10 km
So, 26.09. 8:00 100% 10 km
So, 26.09. 2:00 99% 10 km
Sa, 25.09. 20:00 88% 15 km
Ortszeit Relative Feuchte Sichtweite
Mo, 27.09. 14:00 48% 15 km
Mo, 27.09. 13:55 49% >10 km
Mo, 27.09. 13:00 63% 18 km
Mo, 27.09. 12:55 63% >10 km
Mo, 27.09. 12:00 82% 15 km
Mo, 27.09. 11:55 82% >10 km
Mo, 27.09. 11:00 90% 15 km
Mo, 27.09. 10:55 87% >10 km
Mo, 27.09. 10:00 95% 15 km
Ortszeit Niederschlagsmenge Niederschlagsart
Mo, 27.09. 14:00 0.0 l/m2 in 6 Std. -
Mo, 27.09. 8:00 0.0 l/m2 in 12 Std. -
Mo, 27.09. 2:00 0.0 l/m2 in 6 Std. -
So, 26.09. 20:00 0.0 l/m2 in 12 Std. -
So, 26.09. 14:00 0.0 l/m2 in 6 Std. -
So, 26.09. 8:00 0.0 l/m2 in 12 Std. -
So, 26.09. 2:00 0.0 l/m2 in 6 Std. -
Sa, 25.09. 20:00 0.0 l/m2 in 12 Std. -
Ortszeit Niederschlagsmenge Niederschlagsart
Mo, 27.09. 14:00 keine Meldung -
Mo, 27.09. 13:55 keine Meldung -
Mo, 27.09. 13:00 keine Meldung -
Mo, 27.09. 12:55 keine Meldung -
Mo, 27.09. 12:00 keine Meldung -
Mo, 27.09. 11:55 keine Meldung -
Mo, 27.09. 11:00 keine Meldung -
Mo, 27.09. 10:55 keine Meldung -
Mo, 27.09. 10:00 keine Meldung -
Ortszeit Stärke Spitze Richtung
km/h Bft. km/h Grad Sektor
Mo, 27.09. 14:00 9 2 - 360° N
Mo, 27.09. 8:00 9 2 - 10° N
Mo, 27.09. 2:00 7 2 - 40° NO
So, 26.09. 20:00 6 1 - 220° SW
So, 26.09. 14:00 11 2 - 180° S
So, 26.09. 8:00 4 1 - 220° SW
So, 26.09. 2:00 7 2 - 200° S
Sa, 25.09. 20:00 11 2 - 200° S
Ortszeit Stärke Spitze Richtung
km/h Bft. km/h Grad Sektor
Mo, 27.09. 14:00 9 2 - 360° N
Mo, 27.09. 13:55 9 2 - 360° N
Mo, 27.09. 13:00 7 2 - 20° N
Mo, 27.09. 12:55 7 2 - 20° N
Mo, 27.09. 12:00 11 2 - 20° N
Mo, 27.09. 11:55 11 2 - 20° N
Mo, 27.09. 11:00 9 2 - 10° N
Mo, 27.09. 10:55 9 2 - 10° N
Mo, 27.09. 10:00 9 2 - 40° NO
Ortszeit Untergrenze Bedeckung Gattung
total tief tief mittel hoch
Mo, 27.09. 14:00 750 m 3/8 1/8 Cu Ac -
Mo, 27.09. 8:00 900 m 2/8 2/8 Cu - -
Mo, 27.09. 2:00 1050 m 8/8 2/8 Cu Ac -
So, 26.09. 20:00 600 m 8/8 3/8 Cu Ac -
So, 26.09. 14:00 600 m 8/8 2/8 St Ac -
So, 26.09. 8:00 600 m 6/8 6/8 St - -
So, 26.09. 2:00 1800 m 5/8 5/8 - Ac -
Sa, 25.09. 20:00 2700 m 4/8 4/8 - Ac -
Ortszeit Bedeckungsgrad in Achtel und Wolkenuntergrenze
Mo, 27.09. 14:00 1(750m) 3(1500m)
Mo, 27.09. 13:55 1-2(750m) 3-4(1500m)
Mo, 27.09. 13:00 2(1200m)
Mo, 27.09. 12:55 1-2(1200m)
Mo, 27.09. 12:00 4(2100m)
Mo, 27.09. 11:55 keine Wolken(unter 1500 m)
Mo, 27.09. 11:00 2(1050m) 3(1500m)
Mo, 27.09. 10:55 1-2(1050m) 3-4(1500m)
Mo, 27.09. 10:00 1(900m) 3(1500m)
Ortszeit Stationsdruck (hPa) Tendenz (hPa in 3 Std.)
Mo, 27.09. 14:00 856 - 0,9
Mo, 27.09. 8:00 857 0,0
Mo, 27.09. 2:00 857 0,0
So, 26.09. 20:00 857 0,0
So, 26.09. 14:00 859 0,0
So, 26.09. 8:00 859 - 0,6
So, 26.09. 2:00 859 + 0,4
Sa, 25.09. 20:00 858 0,0
Ortszeit Stationsdruck (hPa) Tendenz (hPa in 3 Std.)
Mo, 27.09. 14:00 856 - 0,9
Mo, 27.09. 13:55 - keine Meldung
Mo, 27.09. 13:00 856 - 0,5
Mo, 27.09. 12:55 - keine Meldung
Mo, 27.09. 12:00 856 - 0,5
Mo, 27.09. 11:55 - keine Meldung
Mo, 27.09. 11:00 857 0,0
Mo, 27.09. 10:55 - keine Meldung
Mo, 27.09. 10:00 857 0,0
Ortszeit Schneehöhe (cm)
Mo, 27.09. 14:00 -
Mo, 27.09. 8:00 0
Mo, 27.09. 2:00 -
So, 26.09. 20:00 -
So, 26.09. 14:00 -
So, 26.09. 8:00 0
So, 26.09. 2:00 -
Sa, 25.09. 20:00 -
Ortszeit Schneehöhe (cm)
Mo, 27.09. 14:00 -
Mo, 27.09. 13:55 -
Mo, 27.09. 13:00 -
Mo, 27.09. 12:55 -
Mo, 27.09. 12:00 -
Mo, 27.09. 11:55 -
Mo, 27.09. 11:00 -
Mo, 27.09. 10:55 -
Mo, 27.09. 10:00 -
Link zu dieser Seite / Seite empfehlen

Das Wetter in ...